sensor_id;sensor_type;location;lat;lon;timestamp;P1;durP1;ratioP1;P2;durP2;ratioP2
15198;SDS011;7700;48.654;9.070;2023-04-15T00:01:28;6.97;;;3.77;;
15198;SDS011;7700;48.654;9.070;2023-04-15T00:03:57;3.80;;;3.07;;
15198;SDS011;7700;48.654;9.070;2023-04-15T00:06:23;4.00;;;3.00;;
15198;SDS011;7700;48.654;9.070;2023-04-15T00:08:50;6.23;;;2.80;;
15198;SDS011;7700;48.654;9.070;2023-04-15T00:11:16;5.60;;;2.87;;
15198;SDS011;7700;48.654;9.070;2023-04-15T00:13:43;5.17;;;3.23;;
15198;SDS011;7700;48.654;9.070;2023-04-15T00:16:09;3.97;;;3.13;;
15198;SDS011;7700;48.654;9.070;2023-04-15T00:18:36;8.60;;;3.30;;
15198;SDS011;7700;48.654;9.070;2023-04-15T00:21:03;4.37;;;2.97;;
15198;SDS011;7700;48.654;9.070;2023-04-15T00:23:29;5.77;;;3.10;;
15198;SDS011;7700;48.654;9.070;2023-04-15T00:25:56;5.57;;;3.10;;
15198;SDS011;7700;48.654;9.070;2023-04-15T00:28:22;5.70;;;3.00;;
15198;SDS011;7700;48.654;9.070;2023-04-15T00:30:48;4.20;;;2.67;;
15198;SDS011;7700;48.654;9.070;2023-04-15T00:33:14;3.13;;;2.67;;
15198;SDS011;7700;48.654;9.070;2023-04-15T00:35:41;3.43;;;2.50;;
15198;SDS011;7700;48.654;9.070;2023-04-15T00:38:07;5.23;;;2.93;;
15198;SDS011;7700;48.654;9.070;2023-04-15T00:40:33;4.03;;;2.57;;
15198;SDS011;7700;48.654;9.070;2023-04-15T00:42:59;4.57;;;2.70;;
15198;SDS011;7700;48.654;9.070;2023-04-15T00:45:25;3.40;;;3.10;;
15198;SDS011;7700;48.654;9.070;2023-04-15T00:47:58;3.87;;;3.50;;
15198;SDS011;7700;48.654;9.070;2023-04-15T00:50:24;5.63;;;3.20;;
15198;SDS011;7700;48.654;9.070;2023-04-15T00:52:50;3.50;;;2.73;;
15198;SDS011;7700;48.654;9.070;2023-04-15T00:55:16;4.13;;;2.53;;
15198;SDS011;7700;48.654;9.070;2023-04-15T00:57:43;4.13;;;2.97;;
15198;SDS011;7700;48.654;9.070;2023-04-15T01:00:09;4.40;;;2.67;;
15198;SDS011;7700;48.654;9.070;2023-04-15T01:02:35;3.70;;;3.27;;
15198;SDS011;7700;48.654;9.070;2023-04-15T01:05:02;4.03;;;3.03;;
15198;SDS011;7700;48.654;9.070;2023-04-15T01:07:28;5.97;;;3.20;;
15198;SDS011;7700;48.654;9.070;2023-04-15T01:09:55;5.63;;;3.20;;
15198;SDS011;7700;48.654;9.070;2023-04-15T01:12:21;5.27;;;3.47;;
15198;SDS011;7700;48.654;9.070;2023-04-15T01:14:47;5.17;;;2.50;;
15198;SDS011;7700;48.654;9.070;2023-04-15T01:17:13;6.50;;;3.30;;
15198;SDS011;7700;48.654;9.070;2023-04-15T01:19:39;4.27;;;3.10;;
15198;SDS011;7700;48.654;9.070;2023-04-15T01:22:05;4.43;;;2.83;;
15198;SDS011;7700;48.654;9.070;2023-04-15T01:24:31;5.13;;;2.70;;
15198;SDS011;7700;48.654;9.070;2023-04-15T01:26:58;4.57;;;2.90;;
15198;SDS011;7700;48.654;9.070;2023-04-15T01:29:24;4.03;;;2.90;;
15198;SDS011;7700;48.654;9.070;2023-04-15T01:31:50;5.03;;;3.23;;
15198;SDS011;7700;48.654;9.070;2023-04-15T01:34:17;5.67;;;3.03;;
15198;SDS011;7700;48.654;9.070;2023-04-15T01:36:43;4.20;;;2.80;;
15198;SDS011;7700;48.654;9.070;2023-04-15T01:39:09;6.40;;;3.30;;
15198;SDS011;7700;48.654;9.070;2023-04-15T01:41:34;3.00;;;2.67;;
15198;SDS011;7700;48.654;9.070;2023-04-15T01:44:00;4.43;;;2.60;;
15198;SDS011;7700;48.654;9.070;2023-04-15T01:46:26;4.67;;;3.03;;
15198;SDS011;7700;48.654;9.070;2023-04-15T01:48:52;2.77;;;2.47;;
15198;SDS011;7700;48.654;9.070;2023-04-15T01:51:18;4.90;;;2.67;;
15198;SDS011;7700;48.654;9.070;2023-04-15T01:53:44;3.43;;;3.10;;
15198;SDS011;7700;48.654;9.070;2023-04-15T01:56:10;3.60;;;2.57;;
15198;SDS011;7700;48.654;9.070;2023-04-15T01:58:36;6.03;;;2.73;;
15198;SDS011;7700;48.654;9.070;2023-04-15T02:01:02;4.17;;;2.90;;
15198;SDS011;7700;48.654;9.070;2023-04-15T02:03:28;4.37;;;2.87;;
15198;SDS011;7700;48.654;9.070;2023-04-15T02:05:54;3.03;;;2.77;;
15198;SDS011;7700;48.654;9.070;2023-04-15T02:08:21;4.83;;;2.70;;
15198;SDS011;7700;48.654;9.070;2023-04-15T02:10:47;3.70;;;2.80;;
15198;SDS011;7700;48.654;9.070;2023-04-15T02:13:13;4.50;;;2.80;;
15198;SDS011;7700;48.654;9.070;2023-04-15T02:15:40;3.27;;;2.73;;
15198;SDS011;7700;48.654;9.070;2023-04-15T02:18:11;5.43;;;3.17;;
15198;SDS011;7700;48.654;9.070;2023-04-15T02:20:37;4.47;;;2.90;;
15198;SDS011;7700;48.654;9.070;2023-04-15T02:23:03;4.27;;;3.33;;
15198;SDS011;7700;48.654;9.070;2023-04-15T02:25:31;4.33;;;2.87;;
15198;SDS011;7700;48.654;9.070;2023-04-15T02:27:57;3.77;;;3.10;;
15198;SDS011;7700;48.654;9.070;2023-04-15T02:30:23;4.43;;;3.03;;
15198;SDS011;7700;48.654;9.070;2023-04-15T02:32:49;4.20;;;2.93;;
15198;SDS011;7700;48.654;9.070;2023-04-15T02:35:15;3.13;;;2.83;;
15198;SDS011;7700;48.654;9.070;2023-04-15T02:37:43;5.43;;;3.00;;
15198;SDS011;7700;48.654;9.070;2023-04-15T02:40:10;4.60;;;3.20;;
15198;SDS011;7700;48.654;9.070;2023-04-15T02:42:40;5.80;;;3.30;;
15198;SDS011;7700;48.654;9.070;2023-04-15T02:45:06;4.70;;;3.17;;
15198;SDS011;7700;48.654;9.070;2023-04-15T02:47:33;6.07;;;3.17;;
15198;SDS011;7700;48.654;9.070;2023-04-15T02:50:01;4.77;;;2.70;;
15198;SDS011;7700;48.654;9.070;2023-04-15T02:52:27;7.10;;;2.93;;
15198;SDS011;7700;48.654;9.070;2023-04-15T02:54:53;4.73;;;2.90;;
15198;SDS011;7700;48.654;9.070;2023-04-15T02:57:24;4.03;;;2.90;;
15198;SDS011;7700;48.654;9.070;2023-04-15T02:59:50;3.67;;;2.90;;
15198;SDS011;7700;48.654;9.070;2023-04-15T03:02:16;4.30;;;3.00;;
15198;SDS011;7700;48.654;9.070;2023-04-15T03:04:42;5.93;;;2.93;;
15198;SDS011;7700;48.654;9.070;2023-04-15T03:07:08;2.90;;;2.50;;
15198;SDS011;7700;48.654;9.070;2023-04-15T03:09:34;4.30;;;3.17;;
15198;SDS011;7700;48.654;9.070;2023-04-15T03:12:00;3.60;;;2.40;;
15198;SDS011;7700;48.654;9.070;2023-04-15T03:14:26;4.77;;;2.60;;
15198;SDS011;7700;48.654;9.070;2023-04-15T03:16:52;4.73;;;2.73;;
15198;SDS011;7700;48.654;9.070;2023-04-15T03:19:18;3.43;;;2.33;;
15198;SDS011;7700;48.654;9.070;2023-04-15T03:21:44;2.53;;;2.33;;
15198;SDS011;7700;48.654;9.070;2023-04-15T03:24:10;3.73;;;3.13;;
15198;SDS011;7700;48.654;9.070;2023-04-15T03:26:36;3.20;;;2.43;;
15198;SDS011;7700;48.654;9.070;2023-04-15T03:29:02;2.50;;;2.30;;
15198;SDS011;7700;48.654;9.070;2023-04-15T03:31:28;5.60;;;2.97;;
15198;SDS011;7700;48.654;9.070;2023-04-15T03:33:54;4.07;;;2.80;;
15198;SDS011;7700;48.654;9.070;2023-04-15T03:36:20;6.60;;;3.47;;
15198;SDS011;7700;48.654;9.070;2023-04-15T03:38:46;4.23;;;2.57;;
15198;SDS011;7700;48.654;9.070;2023-04-15T03:41:13;5.23;;;3.53;;
15198;SDS011;7700;48.654;9.070;2023-04-15T03:43:39;4.97;;;2.30;;
15198;SDS011;7700;48.654;9.070;2023-04-15T03:46:05;5.43;;;3.00;;
15198;SDS011;7700;48.654;9.070;2023-04-15T03:48:31;3.27;;;2.47;;
15198;SDS011;7700;48.654;9.070;2023-04-15T03:50:57;3.63;;;2.90;;
15198;SDS011;7700;48.654;9.070;2023-04-15T03:53:23;7.10;;;2.93;;
15198;SDS011;7700;48.654;9.070;2023-04-15T03:55:49;4.30;;;2.80;;
15198;SDS011;7700;48.654;9.070;2023-04-15T03:58:15;3.47;;;2.40;;
15198;SDS011;7700;48.654;9.070;2023-04-15T04:00:41;5.53;;;2.90;;
15198;SDS011;7700;48.654;9.070;2023-04-15T04:03:07;3.80;;;3.17;;
15198;SDS011;7700;48.654;9.070;2023-04-15T04:05:33;6.27;;;3.23;;
15198;SDS011;7700;48.654;9.070;2023-04-15T04:08:02;4.00;;;2.87;;
15198;SDS011;7700;48.654;9.070;2023-04-15T04:10:28;3.70;;;2.90;;
15198;SDS011;7700;48.654;9.070;2023-04-15T04:12:54;4.70;;;2.70;;
15198;SDS011;7700;48.654;9.070;2023-04-15T04:15:20;4.10;;;2.60;;
15198;SDS011;7700;48.654;9.070;2023-04-15T04:17:46;4.27;;;3.43;;
15198;SDS011;7700;48.654;9.070;2023-04-15T04:20:12;2.90;;;2.27;;
15198;SDS011;7700;48.654;9.070;2023-04-15T04:22:38;3.70;;;3.10;;
15198;SDS011;7700;48.654;9.070;2023-04-15T04:25:05;3.43;;;2.90;;
15198;SDS011;7700;48.654;9.070;2023-04-15T04:27:32;2.77;;;2.53;;
15198;SDS011;7700;48.654;9.070;2023-04-15T04:29:58;5.37;;;3.00;;
15198;SDS011;7700;48.654;9.070;2023-04-15T04:32:24;4.50;;;2.87;;
15198;SDS011;7700;48.654;9.070;2023-04-15T04:34:50;3.73;;;2.83;;
15198;SDS011;7700;48.654;9.070;2023-04-15T04:37:16;7.13;;;3.07;;
15198;SDS011;7700;48.654;9.070;2023-04-15T04:39:42;3.40;;;2.87;;
15198;SDS011;7700;48.654;9.070;2023-04-15T04:42:08;4.17;;;3.00;;
15198;SDS011;7700;48.654;9.070;2023-04-15T04:44:34;6.00;;;2.80;;
15198;SDS011;7700;48.654;9.070;2023-04-15T04:47:00;4.13;;;3.00;;
15198;SDS011;7700;48.654;9.070;2023-04-15T04:49:26;3.50;;;2.60;;
15198;SDS011;7700;48.654;9.070;2023-04-15T04:51:52;3.97;;;2.30;;
15198;SDS011;7700;48.654;9.070;2023-04-15T04:54:18;3.17;;;2.30;;
15198;SDS011;7700;48.654;9.070;2023-04-15T04:56:51;5.20;;;2.50;;
15198;SDS011;7700;48.654;9.070;2023-04-15T04:59:17;4.43;;;2.80;;
15198;SDS011;7700;48.654;9.070;2023-04-15T05:01:43;4.87;;;3.17;;
15198;SDS011;7700;48.654;9.070;2023-04-15T05:04:10;3.23;;;2.93;;
15198;SDS011;7700;48.654;9.070;2023-04-15T05:06:36;2.60;;;2.40;;
15198;SDS011;7700;48.654;9.070;2023-04-15T05:09:02;4.83;;;3.27;;
15198;SDS011;7700;48.654;9.070;2023-04-15T05:11:28;5.03;;;3.20;;
15198;SDS011;7700;48.654;9.070;2023-04-15T05:13:54;4.77;;;3.20;;
15198;SDS011;7700;48.654;9.070;2023-04-15T05:16:20;3.70;;;3.27;;
15198;SDS011;7700;48.654;9.070;2023-04-15T05:18:46;5.37;;;4.33;;
15198;SDS011;7700;48.654;9.070;2023-04-15T05:21:12;5.30;;;3.63;;
15198;SDS011;7700;48.654;9.070;2023-04-15T05:23:38;4.97;;;4.47;;
15198;SDS011;7700;48.654;9.070;2023-04-15T05:26:04;7.83;;;5.97;;
15198;SDS011;7700;48.654;9.070;2023-04-15T05:28:30;12.87;;;8.13;;
15198;SDS011;7700;48.654;9.070;2023-04-15T05:30:56;11.37;;;7.30;;
15198;SDS011;7700;48.654;9.070;2023-04-15T05:33:22;6.87;;;5.37;;
15198;SDS011;7700;48.654;9.070;2023-04-15T05:35:48;7.10;;;5.50;;
15198;SDS011;7700;48.654;9.070;2023-04-15T05:38:14;6.17;;;4.27;;
15198;SDS011;7700;48.654;9.070;2023-04-15T05:40:40;7.57;;;4.70;;
15198;SDS011;7700;48.654;9.070;2023-04-15T05:43:06;5.37;;;4.47;;
15198;SDS011;7700;48.654;9.070;2023-04-15T05:45:32;7.50;;;4.00;;
15198;SDS011;7700;48.654;9.070;2023-04-15T05:47:58;5.23;;;4.10;;
15198;SDS011;7700;48.654;9.070;2023-04-15T05:50:24;7.27;;;3.83;;
15198;SDS011;7700;48.654;9.070;2023-04-15T05:52:50;5.70;;;4.10;;
15198;SDS011;7700;48.654;9.070;2023-04-15T05:55:16;4.63;;;3.57;;
15198;SDS011;7700;48.654;9.070;2023-04-15T05:57:42;4.13;;;3.73;;
15198;SDS011;7700;48.654;9.070;2023-04-15T06:00:08;7.03;;;3.90;;
15198;SDS011;7700;48.654;9.070;2023-04-15T06:02:34;5.27;;;3.70;;
15198;SDS011;7700;48.654;9.070;2023-04-15T06:05:00;4.50;;;3.37;;
15198;SDS011;7700;48.654;9.070;2023-04-15T06:07:26;5.37;;;4.20;;
15198;SDS011;7700;48.654;9.070;2023-04-15T06:09:52;4.43;;;3.90;;
15198;SDS011;7700;48.654;9.070;2023-04-15T06:12:18;3.47;;;3.17;;
15198;SDS011;7700;48.654;9.070;2023-04-15T06:14:44;6.90;;;3.70;;
15198;SDS011;7700;48.654;9.070;2023-04-15T06:17:10;4.40;;;3.67;;
15198;SDS011;7700;48.654;9.070;2023-04-15T06:19:38;4.80;;;3.00;;
15198;SDS011;7700;48.654;9.070;2023-04-15T06:22:04;4.50;;;3.23;;
15198;SDS011;7700;48.654;9.070;2023-04-15T06:24:31;6.67;;;5.13;;
15198;SDS011;7700;48.654;9.070;2023-04-15T06:26:57;9.17;;;6.37;;
15198;SDS011;7700;48.654;9.070;2023-04-15T06:29:23;8.73;;;6.03;;
15198;SDS011;7700;48.654;9.070;2023-04-15T06:31:49;4.37;;;3.87;;
15198;SDS011;7700;48.654;9.070;2023-04-15T06:34:15;8.07;;;4.30;;
15198;SDS011;7700;48.654;9.070;2023-04-15T06:36:41;5.30;;;3.37;;
15198;SDS011;7700;48.654;9.070;2023-04-15T06:39:07;7.20;;;3.77;;
15198;SDS011;7700;48.654;9.070;2023-04-15T06:41:33;4.70;;;3.67;;
15198;SDS011;7700;48.654;9.070;2023-04-15T06:43:59;4.53;;;3.40;;
15198;SDS011;7700;48.654;9.070;2023-04-15T06:46:31;5.20;;;3.83;;
15198;SDS011;7700;48.654;9.070;2023-04-15T06:48:57;5.70;;;3.30;;
15198;SDS011;7700;48.654;9.070;2023-04-15T06:51:23;6.20;;;3.20;;
15198;SDS011;7700;48.654;9.070;2023-04-15T06:53:50;4.83;;;3.20;;
15198;SDS011;7700;48.654;9.070;2023-04-15T06:56:15;7.87;;;3.63;;
15198;SDS011;7700;48.654;9.070;2023-04-15T06:58:41;4.37;;;3.30;;
15198;SDS011;7700;48.654;9.070;2023-04-15T07:01:07;6.10;;;3.10;;
15198;SDS011;7700;48.654;9.070;2023-04-15T07:03:33;6.00;;;3.20;;
15198;SDS011;7700;48.654;9.070;2023-04-15T07:05:59;4.07;;;3.17;;
15198;SDS011;7700;48.654;9.070;2023-04-15T07:08:31;4.77;;;3.10;;
15198;SDS011;7700;48.654;9.070;2023-04-15T07:10:58;6.97;;;3.50;;
15198;SDS011;7700;48.654;9.070;2023-04-15T07:13:24;5.33;;;3.20;;
15198;SDS011;7700;48.654;9.070;2023-04-15T07:15:51;4.50;;;3.57;;
15198;SDS011;7700;48.654;9.070;2023-04-15T07:18:22;5.50;;;3.30;;
15198;SDS011;7700;48.654;9.070;2023-04-15T07:20:48;6.47;;;3.60;;
15198;SDS011;7700;48.654;9.070;2023-04-15T07:23:15;6.97;;;3.40;;
15198;SDS011;7700;48.654;9.070;2023-04-15T07:25:42;5.47;;;3.13;;
15198;SDS011;7700;48.654;9.070;2023-04-15T07:28:08;4.30;;;3.30;;
15198;SDS011;7700;48.654;9.070;2023-04-15T07:30:34;3.13;;;2.83;;
15198;SDS011;7700;48.654;9.070;2023-04-15T07:33:00;4.40;;;3.50;;
15198;SDS011;7700;48.654;9.070;2023-04-15T07:35:27;3.63;;;3.10;;
15198;SDS011;7700;48.654;9.070;2023-04-15T07:37:53;5.47;;;3.17;;
15198;SDS011;7700;48.654;9.070;2023-04-15T07:40:20;2.93;;;2.43;;
15198;SDS011;7700;48.654;9.070;2023-04-15T07:42:46;3.10;;;2.50;;
15198;SDS011;7700;48.654;9.070;2023-04-15T07:45:13;3.40;;;2.80;;
15198;SDS011;7700;48.654;9.070;2023-04-15T07:47:39;4.60;;;3.07;;
15198;SDS011;7700;48.654;9.070;2023-04-15T07:50:06;4.20;;;2.60;;
15198;SDS011;7700;48.654;9.070;2023-04-15T07:52:32;6.03;;;3.53;;
15198;SDS011;7700;48.654;9.070;2023-04-15T07:55:03;4.47;;;3.13;;
15198;SDS011;7700;48.654;9.070;2023-04-15T07:57:30;5.57;;;3.63;;
15198;SDS011;7700;48.654;9.070;2023-04-15T07:59:56;5.17;;;3.20;;
15198;SDS011;7700;48.654;9.070;2023-04-15T08:02:22;6.03;;;2.90;;
15198;SDS011;7700;48.654;9.070;2023-04-15T08:04:47;5.27;;;3.10;;
15198;SDS011;7700;48.654;9.070;2023-04-15T08:07:13;4.60;;;2.93;;
15198;SDS011;7700;48.654;9.070;2023-04-15T08:09:40;4.55;;;2.47;;
15198;SDS011;7700;48.654;9.070;2023-04-15T08:12:06;3.47;;;2.08;;
15198;SDS011;7700;48.654;9.070;2023-04-15T08:14:33;4.28;;;2.53;;
15198;SDS011;7700;48.654;9.070;2023-04-15T08:16:59;4.22;;;2.60;;
15198;SDS011;7700;48.654;9.070;2023-04-15T08:19:25;4.05;;;2.15;;
15198;SDS011;7700;48.654;9.070;2023-04-15T08:21:51;3.88;;;2.45;;
15198;SDS011;7700;48.654;9.070;2023-04-15T08:24:17;5.90;;;2.30;;
15198;SDS011;7700;48.654;9.070;2023-04-15T08:26:43;5.93;;;2.35;;
15198;SDS011;7700;48.654;9.070;2023-04-15T08:29:10;5.50;;;2.35;;
15198;SDS011;7700;48.654;9.070;2023-04-15T08:31:36;3.50;;;2.15;;
15198;SDS011;7700;48.654;9.070;2023-04-15T08:34:02;4.68;;;2.50;;
15198;SDS011;7700;48.654;9.070;2023-04-15T08:36:28;3.67;;;2.45;;
15198;SDS011;7700;48.654;9.070;2023-04-15T08:38:56;3.42;;;2.58;;
15198;SDS011;7700;48.654;9.070;2023-04-15T08:41:25;5.15;;;2.10;;
15198;SDS011;7700;48.654;9.070;2023-04-15T08:44:00;2.80;;;2.13;;
15198;SDS011;7700;48.654;9.070;2023-04-15T08:46:29;4.15;;;1.90;;
15198;SDS011;7700;48.654;9.070;2023-04-15T08:48:56;4.20;;;1.85;;
15198;SDS011;7700;48.654;9.070;2023-04-15T08:51:22;3.97;;;2.08;;
15198;SDS011;7700;48.654;9.070;2023-04-15T08:53:49;3.80;;;1.80;;
15198;SDS011;7700;48.654;9.070;2023-04-15T08:56:17;3.05;;;2.15;;
15198;SDS011;7700;48.654;9.070;2023-04-15T08:58:44;4.82;;;2.00;;
15198;SDS011;7700;48.654;9.070;2023-04-15T09:01:11;4.90;;;1.92;;
15198;SDS011;7700;48.654;9.070;2023-04-15T09:03:37;5.97;;;2.00;;
15198;SDS011;7700;48.654;9.070;2023-04-15T09:06:04;4.18;;;1.70;;
15198;SDS011;7700;48.654;9.070;2023-04-15T09:08:31;3.40;;;1.92;;
15198;SDS011;7700;48.654;9.070;2023-04-15T09:10:58;3.80;;;1.83;;
15198;SDS011;7700;48.654;9.070;2023-04-15T09:13:24;2.90;;;1.88;;
15198;SDS011;7700;48.654;9.070;2023-04-15T09:15:50;2.92;;;2.00;;
15198;SDS011;7700;48.654;9.070;2023-04-15T09:18:26;4.50;;;2.10;;
15198;SDS011;7700;48.654;9.070;2023-04-15T09:20:53;2.35;;;1.77;;
15198;SDS011;7700;48.654;9.070;2023-04-15T09:23:19;4.03;;;2.10;;
15198;SDS011;7700;48.654;9.070;2023-04-15T09:25:45;2.85;;;1.77;;
15198;SDS011;7700;48.654;9.070;2023-04-15T09:28:12;3.30;;;1.88;;
15198;SDS011;7700;48.654;9.070;2023-04-15T09:30:37;3.22;;;2.00;;
15198;SDS011;7700;48.654;9.070;2023-04-15T09:33:04;2.90;;;1.88;;
15198;SDS011;7700;48.654;9.070;2023-04-15T09:35:32;3.65;;;1.95;;
15198;SDS011;7700;48.654;9.070;2023-04-15T09:38:02;1.83;;;1.20;;
15198;SDS011;7700;48.654;9.070;2023-04-15T09:40:36;1.67;;;1.10;;
15198;SDS011;7700;48.654;9.070;2023-04-15T09:43:06;1.45;;;0.75;;
15198;SDS011;7700;48.654;9.070;2023-04-15T09:45:33;1.77;;;0.90;;
15198;SDS011;7700;48.654;9.070;2023-04-15T09:48:21;2.22;;;1.20;;
15198;SDS011;7700;48.654;9.070;2023-04-15T09:50:46;3.03;;;1.10;;
15198;SDS011;7700;48.654;9.070;2023-04-15T09:53:20;2.13;;;1.33;;
15198;SDS011;7700;48.654;9.070;2023-04-15T09:55:50;2.83;;;1.33;;
15198;SDS011;7700;48.654;9.070;2023-04-15T09:58:19;2.72;;;1.27;;
